Time;durP1;ratioP1;P1;durP2;ratioP2;P2;SDS_P1;SDS_P2;PMS_P1;PMS_P2;Temp;Humidity;BMP_temperature;BMP_pressure;BME280_temperature;BME280_humidity;BME280_pressure;Samples;Min_cycle;Max_cycle;Signal;HPM_P1;HPM_P2
2023/05/02 00:00:20;;;;;;;13.88;11.57;;;;;;;7.94;100.00;99531.41;4945632;28;20426;-62
2023/05/02 00:02:47;;;;;;;15.77;12.73;;;;;;;8.25;100.00;99537.72;4949711;28;20070;-62
2023/05/02 00:05:14;;;;;;;12.27;10.95;;;;;;;8.16;100.00;99538.00;4948257;28;20047;-62
2023/05/02 00:07:41;;;;;;;10.90;9.63;;;;;;;7.93;100.00;99543.94;4949846;28;20576;-62
2023/05/02 00:10:11;;;;;;;13.30;11.18;;;;;;;8.01;100.00;99534.81;4946372;28;20131;-62
2023/05/02 00:12:38;;;;;;;17.53;13.87;;;;;;;8.05;100.00;99535.22;4949639;28;20107;-62
2023/05/02 00:15:06;;;;;;;18.90;15.05;;;;;;;8.27;100.00;99543.66;4943479;28;20312;-62
2023/05/02 00:17:33;;;;;;;15.65;12.52;;;;;;;8.36;100.00;99531.63;4936450;28;20043;-62
2023/05/02 00:20:04;;;;;;;13.90;11.55;;;;;;;8.33;100.00;99524.88;4938837;28;20557;-62
2023/05/02 00:22:31;;;;;;;17.20;14.48;;;;;;;8.15;100.00;99533.69;4943757;28;20047;-62
2023/05/02 00:24:59;;;;;;;23.30;16.45;;;;;;;8.57;100.00;99549.16;4943039;28;20078;-62
2023/05/02 00:27:27;;;;;;;16.83;13.07;;;;;;;8.46;100.00;99541.84;4943018;28;20051;-62
2023/05/02 00:29:58;;;;;;;19.73;15.05;;;;;;;8.42;100.00;99552.19;4943100;28;20051;-62
2023/05/02 00:32:25;;;;;;;19.95;15.88;;;;;;;8.45;100.00;99551.72;4948210;28;20131;-62
2023/05/02 00:34:53;;;;;;;21.95;17.15;;;;;;;8.32;100.00;99547.31;4950619;28;20094;-62
2023/05/02 00:37:26;;;;;;;24.52;18.33;;;;;;;8.74;100.00;99539.50;4937310;28;20095;-62
2023/05/02 00:39:53;;;;;;;19.73;14.98;;;;;;;8.64;100.00;99549.91;4940389;28;20073;-62
2023/05/02 00:42:20;;;;;;;20.98;15.57;;;;;;;8.65;100.00;99551.53;4952998;28;20054;-62
2023/05/02 00:44:49;;;;;;;17.67;12.57;;;;;;;8.43;100.00;99562.63;4944718;28;20087;-62
2023/05/02 00:47:17;;;;;;;18.42;13.45;;;;;;;8.34;100.00;99558.59;4940599;28;20055;-62
2023/05/02 00:49:44;;;;;;;21.50;15.85;;;;;;;8.51;100.00;99564.22;4951367;28;20112;-62
2023/05/02 00:52:11;;;;;;;23.88;19.10;;;;;;;8.81;100.00;99569.66;4940855;28;20070;-62
2023/05/02 00:54:39;;;;;;;20.35;16.63;;;;;;;9.10;100.00;99559.25;4940973;28;20066;-62
2023/05/02 00:57:06;;;;;;;22.70;17.95;;;;;;;9.15;100.00;99561.25;4941153;28;20044;-62
2023/05/02 00:59:34;;;;;;;24.27;18.13;;;;;;;9.06;100.00;99563.38;4946524;28;20051;-62
2023/05/02 01:02:10;;;;;;;17.35;14.23;;;;;;;8.98;100.00;99556.50;4942361;28;20119;-62
2023/05/02 01:04:42;;;;;;;25.17;17.38;;;;;;;8.83;100.00;99551.53;4949493;28;20460;-62
2023/05/02 01:07:19;;;;;;;22.88;18.05;;;;;;;8.97;100.00;99554.06;4941055;28;20059;-62
2023/05/02 01:09:57;;;;;;;26.60;20.63;;;;;;;8.91;100.00;99552.25;4941386;28;20527;-62
2023/05/02 01:12:28;;;;;;;25.52;18.42;;;;;;;8.92;100.00;99551.25;4941802;28;20035;-62
2023/05/02 01:14:59;;;;;;;29.98;19.52;;;;;;;8.92;100.00;99561.94;4940400;28;20050;-61
2023/05/02 01:17:31;;;;;;;28.77;19.92;;;;;;;9.01;100.00;99550.72;4943929;28;20051;-62
2023/05/02 01:19:59;;;;;;;26.15;19.98;;;;;;;9.03;100.00;99553.16;4938922;28;20043;-62
2023/05/02 01:22:26;;;;;;;28.65;20.83;;;;;;;8.92;100.00;99552.06;4947183;28;20104;-62
2023/05/02 01:24:58;;;;;;;29.40;22.35;;;;;;;9.03;100.00;99555.81;4939353;28;20489;-62
2023/05/02 01:27:31;;;;;;;31.20;23.23;;;;;;;8.98;100.00;99561.03;4941992;28;20054;-62
2023/05/02 01:30:00;;;;;;;33.00;25.80;;;;;;;8.93;100.00;99555.53;4943260;28;20046;-63
2023/05/02 01:32:27;;;;;;;34.95;24.70;;;;;;;8.91;100.00;99554.94;4946310;28;20055;-62
2023/05/02 01:34:55;;;;;;;37.38;25.67;;;;;;;8.89;100.00;99562.38;4950937;28;20051;-62
2023/05/02 01:37:27;;;;;;;31.73;23.00;;;;;;;8.83;100.00;99564.88;4944821;28;20051;-62
2023/05/02 01:39:56;;;;;;;36.25;24.98;;;;;;;8.77;100.00;99560.44;4948642;28;20227;-62
2023/05/02 01:42:24;;;;;;;35.33;25.23;;;;;;;8.85;100.00;99568.16;4944046;28;20050;-62
2023/05/02 01:44:51;;;;;;;35.20;24.38;;;;;;;8.79;100.00;99574.41;4945134;28;21023;-62
2023/05/02 01:47:22;;;;;;;37.33;27.02;;;;;;;8.82;100.00;99576.63;4949314;28;20055;-62
2023/05/02 01:49:50;;;;;;;43.38;29.02;;;;;;;8.82;100.00;99571.28;4951261;28;20099;-62
2023/05/02 01:52:17;;;;;;;42.22;28.73;;;;;;;8.90;100.00;99583.53;4945876;28;20498;-62
2023/05/02 01:54:44;;;;;;;43.13;29.63;;;;;;;8.90;100.00;99580.03;4944860;28;20047;-62
2023/05/02 01:57:11;;;;;;;46.70;30.20;;;;;;;8.82;100.00;99590.00;4934846;28;20518;-62
2023/05/02 01:59:39;;;;;;;47.08;30.25;;;;;;;8.78;100.00;99596.81;4937690;28;20050;-62
2023/05/02 02:02:06;;;;;;;41.65;29.20;;;;;;;8.82;100.00;99595.34;4943721;28;20035;-62
2023/05/02 02:04:34;;;;;;;43.65;30.63;;;;;;;8.93;100.00;99606.31;4942214;28;20102;-62
2023/05/02 02:07:03;;;;;;;42.63;28.65;;;;;;;9.00;100.00;99601.72;4942141;28;20058;-62
2023/05/02 02:09:33;;;;;;;46.33;29.10;;;;;;;8.93;100.00;99607.13;4941906;28;20527;-62
2023/05/02 02:12:04;;;;;;;48.53;31.75;;;;;;;8.93;100.00;99612.47;4940704;28;20079;-62
2023/05/02 02:14:34;;;;;;;49.30;30.97;;;;;;;9.04;100.00;99613.63;4949975;28;20054;-62
2023/05/02 02:17:01;;;;;;;51.47;31.70;;;;;;;9.12;100.00;99621.34;4944342;28;20043;-62
2023/05/02 02:19:30;;;;;;;47.53;30.52;;;;;;;9.14;100.00;99619.25;4947422;28;20039;-62
2023/05/02 02:22:01;;;;;;;48.83;31.88;;;;;;;9.20;100.00;99617.53;4942297;28;20047;-63
2023/05/02 02:24:28;;;;;;;52.53;31.77;;;;;;;9.21;100.00;99630.72;4937541;28;20043;-62
2023/05/02 02:26:56;;;;;;;55.35;33.42;;;;;;;9.31;100.00;99621.31;4945333;28;20047;-62
2023/05/02 02:29:24;;;;;;;51.70;33.60;;;;;;;9.36;100.00;99626.81;4940793;28;20079;-62
2023/05/02 02:31:51;;;;;;;57.58;36.35;;;;;;;9.40;100.00;99628.00;4940245;28;20062;-62
2023/05/02 02:34:18;;;;;;;59.70;35.92;;;;;;;9.37;100.00;99633.81;4938262;28;20035;-62
2023/05/02 02:36:49;;;;;;;60.13;37.83;;;;;;;9.32;100.00;99631.00;4944946;28;20557;-62
2023/05/02 02:39:21;;;;;;;;;;;;;;;9.37;100.00;99633.81;4948663;28;20051;-62
2023/05/02 02:41:53;;;;;;;60.67;37.55;;;;;;;9.39;100.00;99635.22;4936177;28;20250;-62
2023/05/02 02:44:28;;;;;;;64.55;38.15;;;;;;;9.54;100.00;99640.19;4938146;28;20070;-62
2023/05/02 02:47:01;;;;;;;62.70;37.13;;;;;;;9.56;100.00;99638.09;4939006;28;20114;-62
2023/05/02 02:49:33;;;;;;;65.65;38.28;;;;;;;9.55;100.00;99643.66;4951437;28;20122;-62
2023/05/02 02:52:05;;;;;;;69.13;38.95;;;;;;;9.48;100.00;99641.06;4940477;28;20059;-62
2023/05/02 02:54:36;;;;;;;66.03;39.80;;;;;;;9.47;100.00;99642.13;4935695;28;20371;-62
2023/05/02 02:57:06;;;;;;;67.38;40.10;;;;;;;9.55;100.00;99643.66;4935801;28;20481;-62
2023/05/02 02:59:35;;;;;;;68.35;40.65;;;;;;;9.58;100.00;99646.69;4945784;28;20050;-62
2023/05/02 03:02:08;;;;;;;72.60;40.75;;;;;;;9.58;100.00;99651.25;4942437;28;20114;-62
2023/05/02 03:04:38;;;;;;;67.63;39.95;;;;;;;9.52;100.00;99641.44;4933752;28;20051;-62
2023/05/02 03:07:05;;;;;;;68.30;39.28;;;;;;;9.49;100.00;99642.72;4948723;28;20055;-62
2023/05/02 03:09:42;;;;;;;65.25;37.95;;;;;;;9.40;100.00;99642.19;4938020;28;20043;-62
2023/05/02 03:12:12;;;;;;;70.22;37.65;;;;;;;9.53;100.00;99657.25;4945991;28;20114;-62
2023/05/02 03:14:40;;;;;;;64.75;37.88;;;;;;;9.52;100.00;99669.03;4938910;28;20119;-62
2023/05/02 03:17:08;;;;;;;61.70;36.83;;;;;;;9.44;100.00;99670.16;4940704;28;20543;-62
2023/05/02 03:19:36;;;;;;;67.13;39.85;;;;;;;9.41;100.00;99669.75;4948459;28;20462;-62
2023/05/02 03:22:03;;;;;;;69.32;38.42;;;;;;;9.37;100.00;99676.63;4948472;28;20055;-62
2023/05/02 03:24:31;;;;;;;71.93;39.10;;;;;;;9.42;100.00;99680.25;4948765;28;20035;-62
2023/05/02 03:27:03;;;;;;;66.60;37.55;;;;;;;9.41;100.00;99673.28;4948422;28;20077;-62
2023/05/02 03:29:36;;;;;;;70.85;38.38;;;;;;;9.48;100.00;99675.84;4952669;28;20093;-62
2023/05/02 03:32:05;;;;;;;73.25;41.03;;;;;;;9.45;100.00;99678.97;4951826;28;20613;-62
2023/05/02 03:34:32;;;;;;;71.97;39.45;;;;;;;9.50;100.00;99681.81;4944858;28;20043;-62
2023/05/02 03:37:00;;;;;;;66.38;37.58;;;;;;;9.57;100.00;99676.38;4947087;28;20117;-62
2023/05/02 03:39:29;;;;;;;75.78;40.67;;;;;;;9.47;100.00;99683.06;4948023;28;20043;-62
2023/05/02 03:41:59;;;;;;;75.60;40.22;;;;;;;9.44;100.00;99683.53;4943069;29;20397;-62
2023/05/02 03:44:28;;;;;;;75.57;39.20;;;;;;;9.47;100.00;99691.09;4952371;28;20070;-62
2023/05/02 03:46:55;;;;;;;72.05;39.88;;;;;;;9.43;100.00;99689.09;4949477;28;20039;-62
2023/05/02 03:49:22;;;;;;;73.05;38.28;;;;;;;9.42;100.00;99692.81;4947391;28;20058;-62
2023/05/02 03:51:52;;;;;;;78.18;40.10;;;;;;;9.49;100.00;99696.22;4952263;28;20492;-62
2023/05/02 03:54:25;;;;;;;89.53;43.25;;;;;;;9.44;100.00;99688.06;4945489;28;20074;-62
2023/05/02 03:56:54;;;;;;;86.90;41.88;;;;;;;9.44;100.00;99694.22;4952283;28;20047;-62
2023/05/02 03:59:29;;;;;;;91.93;43.80;;;;;;;9.49;100.00;99705.06;4945626;28;20070;-62
2023/05/02 04:01:59;;;;;;;93.80;45.13;;;;;;;9.52;100.00;99709.16;4957580;28;20035;-62
2023/05/02 04:04:37;;;;;;;107.70;47.17;;;;;;;9.31;100.00;99709.59;4952355;28;20421;-62
2023/05/02 04:07:08;;;;;;;103.40;46.13;;;;;;;9.26;100.00;99713.75;4953184;28;20055;-62
2023/05/02 04:09:36;;;;;;;108.38;44.65;;;;;;;9.34;100.00;99714.53;4944849;28;20047;-62
2023/05/02 04:12:08;;;;;;;112.60;48.67;;;;;;;9.26;100.00;99705.75;4942589;28;20052;-63
2023/05/02 04:14:39;;;;;;;126.32;50.95;;;;;;;9.32;100.00;99716.59;4948657;28;20489;-63
2023/05/02 04:17:07;;;;;;;104.88;46.92;;;;;;;9.23;100.00;99719.53;4950349;28;20047;-63
2023/05/02 04:19:39;;;;;;;130.43;53.17;;;;;;;9.31;100.00;99714.94;4951945;28;20055;-63
2023/05/02 04:22:07;;;;;;;134.90;50.63;;;;;;;9.06;100.00;99713.13;4946568;28;20041;-63
2023/05/02 04:24:39;;;;;;;126.97;47.10;;;;;;;9.13;100.00;99719.22;4952659;28;20130;-63
2023/05/02 04:27:09;;;;;;;138.68;52.33;;;;;;;9.12;100.00;99717.59;4952416;28;20047;-63
2023/05/02 04:29:37;;;;;;;132.95;49.67;;;;;;;9.08;100.00;99735.13;4950019;28;20118;-63
2023/05/02 04:32:10;;;;;;;134.73;50.00;;;;;;;9.10;100.00;99735.72;4934951;28;20044;-63
2023/05/02 04:34:38;;;;;;;154.98;53.55;;;;;;;9.09;100.00;99738.63;4950346;28;20064;-63
2023/05/02 04:37:06;;;;;;;133.43;48.67;;;;;;;9.24;100.00;99747.94;4941956;28;20052;-62
2023/05/02 04:39:34;;;;;;;143.80;52.22;;;;;;;9.15;100.00;99743.91;4945933;28;20106;-63
2023/05/02 04:42:09;;;;;;;142.85;51.13;;;;;;;9.11;100.00;99752.56;4948223;28;20131;-63
2023/05/02 04:44:43;;;;;;;140.43;47.65;;;;;;;9.11;100.00;99758.78;4927203;29;20074;-63
2023/05/02 04:47:12;;;;;;;130.48;47.17;;;;;;;9.13;100.00;99748.66;4948933;28;20356;-63
2023/05/02 04:49:40;;;;;;;137.00;49.45;;;;;;;9.03;100.00;99769.72;4948891;28;20058;-62
2023/05/02 04:52:07;;;;;;;141.07;47.53;;;;;;;8.97;100.00;99767.94;4945446;28;20131;-62
2023/05/02 04:54:35;;;;;;;141.32;48.38;;;;;;;9.08;100.00;99780.56;4957233;28;20428;-62
2023/05/02 04:57:05;;;;;;;125.40;45.75;;;;;;;9.22;100.00;99781.28;4948340;28;20102;-62
2023/05/02 04:59:35;;;;;;;138.52;47.22;;;;;;;9.39;100.00;99789.56;4949345;28;20134;-63
2023/05/02 05:02:06;;;;;;;127.90;45.03;;;;;;;9.31;100.00;99788.00;4937950;28;20051;-62
2023/05/02 05:04:35;;;;;;;120.45;43.92;;;;;;;9.36;100.00;99792.66;4939848;28;20221;-62
2023/05/02 05:07:07;;;;;;;118.60;42.38;;;;;;;9.27;100.00;99792.97;4940756;28;20039;-62
2023/05/02 05:09:35;;;;;;;116.80;43.60;;;;;;;9.26;100.00;99799.34;4949060;28;20146;-62
2023/05/02 05:12:02;;;;;;;133.73;45.95;;;;;;;9.23;100.00;99798.97;4942571;28;20490;-62
2023/05/02 05:14:32;;;;;;;121.53;44.60;;;;;;;9.21;100.00;99801.88;4941058;28;20441;-61
2023/05/02 05:17:02;;;;;;;134.65;46.63;;;;;;;9.14;100.00;99803.78;4956160;28;20039;-63
2023/05/02 05:19:29;;;;;;;;;;;;;;;9.17;100.00;99806.00;4950206;28;20453;-62
2023/05/02 05:21:59;;;;;;;122.38;41.80;;;;;;;9.25;100.00;99808.41;4949456;28;19926;-63
2023/05/02 05:24:27;;;;;;;124.57;43.90;;;;;;;9.15;100.00;99801.94;4942873;28;20056;-62
2023/05/02 05:26:56;;;;;;;126.43;42.78;;;;;;;9.18;100.00;99802.28;4951768;28;20050;-61
2023/05/02 05:29:23;;;;;;;122.25;45.38;;;;;;;9.19;100.00;99819.19;4940478;28;20141;-61
2023/05/02 05:31:50;;;;;;;127.93;43.03;;;;;;;9.11;100.00;99817.59;4938231;28;20453;-62
2023/05/02 05:34:19;;;;;;;101.15;35.67;;;;;;;9.18;100.00;99817.53;4946583;28;20039;-61
2023/05/02 05:36:49;;;;;;;119.63;38.92;;;;;;;9.22;100.00;99816.88;4952162;28;20392;-61
2023/05/02 05:39:18;;;;;;;109.43;38.65;;;;;;;9.23;100.00;99815.00;4957482;28;20047;-61
2023/05/02 05:41:49;;;;;;;115.97;40.58;;;;;;;9.23;100.00;99826.53;4940466;28;20044;-63
2023/05/02 05:44:20;;;;;;;107.32;38.35;;;;;;;9.11;100.00;99817.59;4946027;28;20094;-62
2023/05/02 05:46:48;;;;;;;107.22;39.22;;;;;;;9.05;100.00;99829.97;4940575;28;20045;-63
2023/05/02 05:49:16;;;;;;;104.50;37.28;;;;;;;9.18;100.00;99834.38;4947996;28;20502;-63
2023/05/02 05:51:44;;;;;;;107.85;40.05;;;;;;;9.12;100.00;99834.47;4939313;28;20139;-63
2023/05/02 05:54:11;;;;;;;99.18;37.30;;;;;;;9.19;100.00;99838.72;4940562;28;20053;-63
2023/05/02 05:56:40;;;;;;;105.07;37.72;;;;;;;9.33;100.00;99836.72;4942639;28;20129;-63
2023/05/02 05:59:14;;;;;;;98.60;36.08;;;;;;;9.28;100.00;99840.09;4955468;28;20070;-63
2023/05/02 06:01:42;;;;;;;104.38;37.75;;;;;;;9.55;100.00;99845.19;4954867;28;20046;-63
2023/05/02 06:04:12;;;;;;;97.82;34.67;;;;;;;9.58;100.00;99852.75;4938056;28;20125;-63
2023/05/02 06:06:42;;;;;;;102.07;33.97;;;;;;;9.87;100.00;99866.50;4946706;28;20070;-63
2023/05/02 06:09:09;;;;;;;91.40;35.03;;;;;;;9.96;100.00;99864.31;4946069;28;20498;-61
2023/05/02 06:11:37;;;;;;;79.72;30.55;;;;;;;9.67;100.00;99862.16;4939065;28;20058;-62
2023/05/02 06:14:06;;;;;;;86.47;30.08;;;;;;;9.52;100.00;99872.38;4942730;28;20142;-61
2023/05/02 06:16:34;;;;;;;89.72;31.63;;;;;;;9.48;100.00;99871.19;4945396;28;20043;-62
2023/05/02 06:19:06;;;;;;;87.20;30.85;;;;;;;9.41;100.00;99883.78;4942112;28;20141;-61
2023/05/02 06:21:34;;;;;;;78.85;28.13;;;;;;;9.43;100.00;99879.84;4941480;28;20039;-61
2023/05/02 06:24:07;;;;;;;81.15;27.95;;;;;;;9.53;100.00;99879.38;4946285;28;20054;-61
2023/05/02 06:26:35;;;;;;;75.82;27.95;;;;;;;9.77;100.00;99879.56;4942075;28;20039;-62
2023/05/02 06:29:03;;;;;;;71.75;27.45;;;;;;;9.82;100.00;99883.22;4938712;28;20350;-63
2023/05/02 06:31:32;;;;;;;75.57;27.40;;;;;;;9.83;100.00;99889.38;4944043;28;20177;-62
2023/05/02 06:33:59;;;;;;;73.28;26.15;;;;;;;9.84;100.00;99888.38;4948992;28;21956;-61
2023/05/02 06:36:26;;;;;;;62.13;24.98;;;;;;;9.93;100.00;99892.38;4931380;28;20074;-61
2023/05/02 06:38:53;;;;;;;66.85;25.90;;;;;;;9.96;100.00;99899.97;4943468;28;20051;-61
2023/05/02 06:41:20;;;;;;;66.15;25.83;;;;;;;10.09;100.00;99904.38;4937375;28;20123;-62
2023/05/02 06:43:48;;;;;;;70.35;26.58;;;;;;;9.99;100.00;99899.53;4942105;28;20051;-61
2023/05/02 06:46:17;;;;;;;59.58;25.17;;;;;;;9.94;100.00;99908.22;4953015;28;20131;-61
2023/05/02 06:48:47;;;;;;;58.25;22.27;;;;;;;10.05;100.00;99917.38;4933755;28;20039;-62
2023/05/02 06:51:14;;;;;;;53.97;22.38;;;;;;;10.06;100.00;99911.00;4944181;28;20573;-62
2023/05/02 06:53:43;;;;;;;65.55;23.48;;;;;;;10.17;100.00;99914.78;4942589;28;20051;-62
2023/05/02 06:56:10;;;;;;;58.17;24.00;;;;;;;10.02;100.00;99922.38;4943960;28;20204;-62
2023/05/02 06:58:37;;;;;;;58.08;23.15;;;;;;;10.15;100.00;99924.91;4944965;28;20355;-63
2023/05/02 07:01:05;;;;;;;50.20;21.77;;;;;;;10.08;100.00;99924.16;4935665;28;20078;-62
2023/05/02 07:03:32;;;;;;;60.67;23.58;;;;;;;9.97;100.00;99931.06;4935555;28;20053;-63
2023/05/02 07:06:03;;;;;;;51.33;23.52;;;;;;;10.05;100.00;99941.47;4938007;28;20047;-62
2023/05/02 07:08:31;;;;;;;54.08;21.63;;;;;;;10.10;100.00;99938.16;4942059;28;20426;-62
2023/05/02 07:10:58;;;;;;;44.40;20.90;;;;;;;9.99;100.00;99939.69;4939156;28;20039;-62
2023/05/02 07:13:25;;;;;;;55.58;23.25;;;;;;;9.85;100.00;99947.03;4946905;28;20047;-62
2023/05/02 07:15:53;;;;;;;56.00;22.92;;;;;;;9.90;100.00;99951.72;4940353;28;20051;-62
2023/05/02 07:18:20;;;;;;;55.00;22.52;;;;;;;10.08;100.00;99950.94;4942591;28;20401;-63
2023/05/02 07:20:48;;;;;;;55.42;22.33;;;;;;;9.98;100.00;99956.78;4947887;28;20042;-62
2023/05/02 07:23:16;;;;;;;57.15;23.35;;;;;;;9.92;100.00;99957.69;4938082;28;20062;-62
2023/05/02 07:25:44;;;;;;;52.28;22.85;;;;;;;9.99;100.00;99965.66;4958772;28;20045;-62
2023/05/02 07:28:11;;;;;;;55.58;23.02;;;;;;;10.19;100.00;99963.59;4936068;28;20111;-62
2023/05/02 07:30:38;;;;;;;62.00;22.85;;;;;;;10.14;100.00;99963.44;4946987;28;20054;-62
2023/05/02 07:33:06;;;;;;;54.65;23.58;;;;;;;10.25;100.00;99967.25;4943260;28;20040;-62
2023/05/02 07:35:33;;;;;;;54.05;23.73;;;;;;;10.36;100.00;99969.25;4939958;28;20049;-63
2023/05/02 07:38:00;;;;;;;61.58;22.60;;;;;;;10.42;100.00;99968.34;4939491;28;20493;-63
2023/05/02 07:40:29;;;;;;;52.53;22.38;;;;;;;10.52;100.00;99979.34;4945169;28;20055;-61
2023/05/02 07:42:58;;;;;;;58.65;22.80;;;;;;;10.74;100.00;99974.34;4946149;28;20054;-62
2023/05/02 07:45:32;;;;;;;57.78;22.00;;;;;;;10.91;99.36;99982.59;4953042;28;20166;-62
2023/05/02 07:47:59;;;;;;;55.70;22.35;;;;;;;10.57;100.00;99982.19;4939391;28;20036;-62
2023/05/02 07:50:29;;;;;;;58.35;22.00;;;;;;;10.35;100.00;99975.63;4945037;28;20046;-62
2023/05/02 07:52:57;;;;;;;55.03;20.95;;;;;;;10.32;100.00;99974.22;4951696;28;20556;-61
2023/05/02 07:55:26;;;;;;;59.20;20.17;;;;;;;10.37;100.00;99973.53;4944749;28;20143;-61
2023/05/02 07:57:54;;;;;;;43.35;19.50;;;;;;;10.38;100.00;99977.84;4939180;28;20147;-61
2023/05/02 08:00:25;;;;;;;44.88;19.10;;;;;;;10.47;99.87;99981.06;4942450;28;20070;-61
2023/05/02 08:02:52;;;;;;;;;;;;;;;10.70;99.67;99986.56;4934648;28;20044;-61
2023/05/02 08:05:19;;;;;;;45.75;18.73;;;;;;;10.79;99.19;99979.84;4951146;28;20021;-61
2023/05/02 08:07:46;;;;;;;45.67;18.50;;;;;;;10.80;96.18;99992.22;4939603;28;20245;-61
2023/05/02 08:10:13;;;;;;;46.17;18.80;;;;;;;10.99;94.99;99989.50;4943782;28;20142;-61
2023/05/02 08:12:41;;;;;;;47.45;18.92;;;;;;;10.90;94.36;99991.69;4944688;28;20434;-61
2023/05/02 08:15:11;;;;;;;41.95;17.52;;;;;;;11.06;93.41;99989.41;4945108;28;20051;-62
2023/05/02 08:17:38;;;;;;;41.95;17.80;;;;;;;11.25;92.71;99993.69;4945050;28;20502;-61
2023/05/02 08:20:07;;;;;;;41.83;18.75;;;;;;;11.52;92.13;99993.31;4952274;28;20099;-62
2023/05/02 08:22:34;;;;;;;47.28;19.63;;;;;;;11.60;92.01;99992.97;4949387;28;20199;-65
2023/05/02 08:25:02;;;;;;;42.28;18.77;;;;;;;11.89;89.45;100002.06;4949598;28;20493;-62
2023/05/02 08:27:29;;;;;;;44.75;20.05;;;;;;;11.97;89.45;100006.25;4946915;28;20057;-61
2023/05/02 08:29:56;;;;;;;38.97;17.50;;;;;;;12.17;88.51;100006.72;4938411;28;20050;-61
2023/05/02 08:32:25;;;;;;;36.78;16.98;;;;;;;12.49;87.05;100017.13;4952643;28;20106;-61
2023/05/02 08:34:55;;;;;;;37.40;17.38;;;;;;;13.21;83.71;100013.19;4954487;28;20573;-62
2023/05/02 08:37:23;;;;;;;31.93;17.33;;;;;;;13.45;81.31;100014.72;4942556;28;20039;-61
2023/05/02 08:39:50;;;;;;;38.10;17.40;;;;;;;13.58;79.86;100019.84;4949680;28;20415;-61
2023/05/02 08:42:19;;;;;;;37.10;17.45;;;;;;;13.83;78.97;100015.94;4944440;28;20058;-61
2023/05/02 08:44:49;;;;;;;35.05;15.45;;;;;;;14.18;76.67;100014.88;4941692;28;20090;-62
2023/05/02 08:47:16;;;;;;;34.53;15.75;;;;;;;13.86;77.31;100010.06;4943508;28;20042;-61
2023/05/02 08:49:44;;;;;;;34.45;16.92;;;;;;;14.48;77.40;100017.19;4942927;28;20051;-61
2023/05/02 08:52:12;;;;;;;33.03;15.10;;;;;;;15.18;72.99;100015.63;4944825;28;20051;-62
2023/05/02 08:54:40;;;;;;;30.75;16.00;;;;;;;14.46;75.72;100022.81;4949846;28;20134;-62
2023/05/02 08:57:08;;;;;;;31.40;16.08;;;;;;;14.21;77.02;100025.16;4940640;28;20043;-62
2023/05/02 08:59:37;;;;;;;29.98;14.13;;;;;;;13.68;78.28;100026.44;4951002;28;20043;-62
2023/05/02 09:02:12;;;;;;;29.00;13.07;;;;;;;13.59;79.48;100031.41;4945987;28;20052;-62
2023/05/02 09:04:43;;;;;;;23.30;12.00;;;;;;;13.71;79.00;100031.34;4951761;28;20125;-62
2023/05/02 09:07:11;;;;;;;22.80;11.20;;;;;;;13.99;78.04;100028.59;4938652;28;20439;-63
2023/05/02 09:09:39;;;;;;;16.92;8.95;;;;;;;13.54;78.79;100037.53;4959851;28;20077;-63
2023/05/02 09:12:07;;;;;;;16.92;8.30;;;;;;;13.23;81.70;100040.66;4946247;28;20137;-63
2023/05/02 09:14:34;;;;;;;14.55;8.35;;;;;;;13.02;83.77;100047.53;4941387;28;20106;-62
2023/05/02 09:17:07;;;;;;;16.67;8.18;;;;;;;12.85;86.77;100056.34;4949009;28;20035;-63
2023/05/02 09:19:37;;;;;;;12.30;7.10;;;;;;;12.56;88.43;100052.78;4943102;28;20047;-63
2023/05/02 09:22:06;;;;;;;13.23;7.03;;;;;;;12.33;87.92;100055.44;4942796;28;20157;-63
2023/05/02 09:24:35;;;;;;;15.95;7.68;;;;;;;11.95;90.54;100060.22;4941888;28;20052;-63
2023/05/02 09:27:05;;;;;;;15.13;7.72;;;;;;;12.25;88.47;100056.63;4951221;28;20054;-61
2023/05/02 09:29:36;;;;;;;17.35;7.75;;;;;;;11.86;90.74;100073.16;4935999;28;20376;-63
2023/05/02 09:32:07;;;;;;;16.15;8.32;;;;;;;11.79;93.40;100069.72;4944667;28;20458;-62
2023/05/02 09:34:36;;;;;;;16.60;7.50;;;;;;;12.39;90.54;100068.78;4946041;28;20054;-62
2023/05/02 09:37:07;;;;;;;17.27;8.50;;;;;;;12.58;89.00;100077.56;4934805;28;20047;-63
2023/05/02 09:39:56;;;;;;;15.57;8.77;;;;;;;12.90;87.44;100069.09;4945698;28;20098;-62
2023/05/02 09:42:37;;;;;;;19.00;10.50;;;;;;;12.48;87.11;100070.09;4949130;28;20043;-62
2023/05/02 09:45:05;;;;;;;18.08;10.57;;;;;;;12.82;85.04;100067.56;4948486;28;20054;-62
2023/05/02 09:47:33;;;;;;;21.48;11.13;;;;;;;13.59;80.98;100074.50;4940461;28;20039;-62
2023/05/02 09:50:00;;;;;;;21.63;11.85;;;;;;;13.57;80.23;100077.44;4943429;28;20051;-62
2023/05/02 09:52:29;;;;;;;21.88;11.32;;;;;;;13.94;79.83;100074.31;4942768;28;20452;-62
2023/05/02 09:54:58;;;;;;;26.10;13.77;;;;;;;13.85;78.23;100078.47;4939589;28;20506;-62
2023/05/02 09:57:39;;;;;;;21.35;12.18;;;;;;;13.33;79.90;100090.19;4947121;28;20589;-63
2023/05/02 10:00:10;;;;;;;20.17;11.50;;;;;;;13.42;79.04;100092.50;4944318;28;20164;-61
2023/05/02 10:02:40;;;;;;;21.08;11.63;;;;;;;14.13;77.94;100082.19;4944631;28;20039;-61
2023/05/02 10:05:07;;;;;;;19.38;11.10;;;;;;;14.21;77.70;100084.47;4944502;28;20047;-62
2023/05/02 10:07:35;;;;;;;18.85;10.63;;;;;;;14.09;77.41;100081.03;4943947;28;20098;-61
2023/05/02 10:10:08;;;;;;;19.85;10.45;;;;;;;14.24;75.64;100090.16;4942341;28;20043;-61
2023/05/02 10:12:35;;;;;;;18.67;10.75;;;;;;;13.89;77.16;100093.09;4941461;28;20141;-61
2023/05/02 10:15:05;;;;;;;18.90;10.60;;;;;;;14.83;72.69;100100.53;4944996;28;20491;-61
2023/05/02 10:17:40;;;;;;;17.33;10.48;;;;;;;14.56;74.31;100086.91;4936496;28;20506;-63
2023/05/02 10:20:09;;;;;;;20.20;11.80;;;;;;;14.44;74.53;100086.97;4943372;28;20122;-63
2023/05/02 10:22:36;;;;;;;18.58;11.27;;;;;;;15.73;70.93;100101.06;4946479;28;20043;-62
2023/05/02 10:25:08;;;;;;;17.00;10.90;;;;;;;15.76;69.35;100101.63;4935378;28;20047;-62
2023/05/02 10:27:38;;;;;;;19.80;12.05;;;;;;;15.73;67.84;100101.06;4934338;28;20051;-62
2023/05/02 10:30:07;;;;;;;18.05;10.48;;;;;;;15.28;69.80;100093.25;4940825;28;20593;-62
2023/05/02 10:32:34;;;;;;;15.15;9.70;;;;;;;15.46;69.90;100100.19;4941394;28;20186;-62
2023/05/02 10:35:03;;;;;;;17.40;9.40;;;;;;;15.16;69.53;100090.66;4941077;28;20506;-62
2023/05/02 10:37:32;;;;;;;15.68;9.35;;;;;;;15.22;70.44;100096.94;4952859;28;20047;-62
2023/05/02 10:40:14;;;;;;;15.90;8.15;;;;;;;15.40;69.06;100103.91;4940347;28;20050;-64
2023/05/02 10:42:44;;;;;;;16.67;8.05;;;;;;;14.99;69.59;100100.72;4942117;28;20054;-63
2023/05/02 10:45:12;;;;;;;16.90;9.07;;;;;;;14.31;73.19;100090.00;4942177;28;20527;-63
2023/05/02 10:47:41;;;;;;;17.73;8.10;;;;;;;14.44;72.30;100099.66;4944747;28;20043;-62
2023/05/02 10:50:08;;;;;;;15.27;7.90;;;;;;;14.79;71.54;100096.66;4935522;28;20071;-62
2023/05/02 10:52:36;;;;;;;15.57;7.50;;;;;;;14.69;72.08;100101.94;4949747;28;20038;-62
2023/05/02 10:55:18;;;;;;;13.43;8.10;;;;;;;14.15;74.52;100102.44;4946923;28;20130;-63
2023/05/02 10:58:22;;;;;;;15.35;8.70;;;;;;;13.83;75.60;100107.56;4939284;28;20581;-63
2023/05/02 11:00:50;;;;;;;14.30;8.80;;;;;;;13.62;76.16;100108.22;4918373;28;20043;-62
2023/05/02 11:03:55;;;;;;;12.27;7.45;;;;;;;14.22;75.17;100113.03;4946825;28;20048;-63
2023/05/02 11:06:22;;;;;;;11.70;7.75;;;;;;;14.76;72.35;100107.97;4937471;28;20154;-61
2023/05/02 11:08:49;;;;;;;12.80;7.40;;;;;;;14.54;72.82;100107.91;4938282;28;20039;-61
2023/05/02 11:11:41;;;;;;;15.02;7.30;;;;;;;14.44;73.40;100115.81;4943219;28;20043;-60
2023/05/02 11:14:09;;;;;;;11.88;6.55;;;;;;;14.58;72.29;100100.97;4938551;28;20046;-63
2023/05/02 11:17:11;;;;;;;14.55;7.45;;;;;;;15.22;68.92;100105.84;4943618;28;20382;-63
2023/05/02 11:20:31;;;;;;;11.80;5.57;;;;;;;15.37;65.30;100107.94;4941256;28;20159;-63
2023/05/02 11:23:21;;;;;;;8.70;5.50;;;;;;;15.42;64.38;100110.69;4858330;29;20401;-62
2023/05/02 11:25:48;;;;;;;11.00;5.47;;;;;;;14.94;65.49;100103.34;4903132;28;20051;-62